sensor_id;sensor_type;location;lat;lon;timestamp;pressure;altitude;pressure_sealevel;temperature;humidity
62791;BME280;48830;53.426;10.300;2023-05-25T00:02:15;102408.88;;;11.44;100.00
62791;BME280;48830;53.426;10.300;2023-05-25T00:04:40;102407.00;;;11.40;100.00
62791;BME280;48830;53.426;10.300;2023-05-25T00:07:06;102407.78;;;11.38;100.00
62791;BME280;48830;53.426;10.300;2023-05-25T00:09:31;102400.75;;;11.34;100.00
62791;BME280;48830;53.426;10.300;2023-05-25T00:11:57;102402.28;;;11.28;100.00
62791;BME280;48830;53.426;10.300;2023-05-25T00:14:24;102406.44;;;11.25;100.00
62791;BME280;48830;53.426;10.300;2023-05-25T00:16:50;102404.50;;;11.19;100.00
62791;BME280;48830;53.426;10.300;2023-05-25T00:19:16;102403.56;;;11.17;100.00
62791;BME280;48830;53.426;10.300;2023-05-25T00:21:43;102406.97;;;11.16;100.00
62791;BME280;48830;53.426;10.300;2023-05-25T00:24:12;102416.16;;;11.10;100.00
62791;BME280;48830;53.426;10.300;2023-05-25T00:26:37;102417.06;;;11.12;100.00
62791;BME280;48830;53.426;10.300;2023-05-25T00:29:03;102417.72;;;11.06;100.00
62791;BME280;48830;53.426;10.300;2023-05-25T00:31:28;102408.97;;;11.02;100.00
62791;BME280;48830;53.426;10.300;2023-05-25T00:33:57;102418.41;;;11.02;100.00
62791;BME280;48830;53.426;10.300;2023-05-25T00:36:23;102415.63;;;10.97;100.00
62791;BME280;48830;53.426;10.300;2023-05-25T00:38:48;102413.97;;;10.98;100.00
62791;BME280;48830;53.426;10.300;2023-05-25T00:41:16;102419.81;;;10.94;100.00
62791;BME280;48830;53.426;10.300;2023-05-25T00:43:44;102416.84;;;10.85;100.00
62791;BME280;48830;53.426;10.300;2023-05-25T00:46:15;102419.44;;;10.85;100.00
62791;BME280;48830;53.426;10.300;2023-05-25T00:48:41;102426.41;;;10.87;100.00
62791;BME280;48830;53.426;10.300;2023-05-25T00:51:08;102423.84;;;10.87;100.00
62791;BME280;48830;53.426;10.300;2023-05-25T00:53:34;102422.81;;;10.84;100.00
62791;BME280;48830;53.426;10.300;2023-05-25T00:56:07;102417.53;;;10.81;100.00
62791;BME280;48830;53.426;10.300;2023-05-25T00:58:37;102419.31;;;10.82;100.00
62791;BME280;48830;53.426;10.300;2023-05-25T01:01:04;102421.81;;;10.80;100.00
62791;BME280;48830;53.426;10.300;2023-05-25T01:03:33;102418.25;;;10.76;100.00
62791;BME280;48830;53.426;10.300;2023-05-25T01:06:03;102415.41;;;10.70;100.00
62791;BME280;48830;53.426;10.300;2023-05-25T01:08:32;102412.97;;;10.73;100.00
62791;BME280;48830;53.426;10.300;2023-05-25T01:10:59;102417.19;;;10.71;100.00
62791;BME280;48830;53.426;10.300;2023-05-25T01:13:27;102418.69;;;10.66;100.00
62791;BME280;48830;53.426;10.300;2023-05-25T01:15:54;102420.31;;;10.64;100.00
62791;BME280;48830;53.426;10.300;2023-05-25T01:18:20;102416.81;;;10.62;100.00
62791;BME280;48830;53.426;10.300;2023-05-25T01:21:07;102418.44;;;10.60;100.00
62791;BME280;48830;53.426;10.300;2023-05-25T01:23:42;102421.81;;;10.59;100.00
62791;BME280;48830;53.426;10.300;2023-05-25T01:26:14;102430.34;;;10.58;100.00
62791;BME280;48830;53.426;10.300;2023-05-25T01:28:44;102426.00;;;10.57;100.00
62791;BME280;48830;53.426;10.300;2023-05-25T01:31:13;102433.09;;;10.42;100.00
62791;BME280;48830;53.426;10.300;2023-05-25T01:33:42;102430.75;;;10.48;100.00
62791;BME280;48830;53.426;10.300;2023-05-25T01:36:08;102428.97;;;10.45;100.00
62791;BME280;48830;53.426;10.300;2023-05-25T01:38:35;102422.34;;;10.31;100.00
62791;BME280;48830;53.426;10.300;2023-05-25T01:41:02;102410.66;;;10.18;100.00
62791;BME280;48830;53.426;10.300;2023-05-25T01:43:27;102413.22;;;10.18;100.00
62791;BME280;48830;53.426;10.300;2023-05-25T01:46:00;102412.44;;;10.21;100.00
62791;BME280;48830;53.426;10.300;2023-05-25T01:48:44;102411.75;;;10.23;100.00
62791;BME280;48830;53.426;10.300;2023-05-25T01:51:39;102411.75;;;10.23;100.00
62791;BME280;48830;53.426;10.300;2023-05-25T01:54:15;102415.84;;;10.20;100.00
62791;BME280;48830;53.426;10.300;2023-05-25T01:56:44;102416.72;;;10.20;100.00
62791;BME280;48830;53.426;10.300;2023-05-25T01:59:12;102414.97;;;10.19;100.00
62791;BME280;48830;53.426;10.300;2023-05-25T02:01:41;102426.72;;;10.14;100.00
62791;BME280;48830;53.426;10.300;2023-05-25T02:04:07;102425.97;;;10.17;100.00
62791;BME280;48830;53.426;10.300;2023-05-25T02:06:34;102419.03;;;10.14;100.00
62791;BME280;48830;53.426;10.300;2023-05-25T02:09:04;102423.28;;;10.14;100.00
62791;BME280;48830;53.426;10.300;2023-05-25T02:11:29;102432.03;;;10.17;100.00
62791;BME280;48830;53.426;10.300;2023-05-25T02:13:55;102432.19;;;10.22;100.00
62791;BME280;48830;53.426;10.300;2023-05-25T02:16:20;102422.16;;;10.27;100.00
62791;BME280;48830;53.426;10.300;2023-05-25T02:18:46;102427.28;;;10.27;100.00
62791;BME280;48830;53.426;10.300;2023-05-25T02:21:11;102422.22;;;10.28;100.00
62791;BME280;48830;53.426;10.300;2023-05-25T02:23:37;102422.28;;;10.30;100.00
62791;BME280;48830;53.426;10.300;2023-05-25T02:26:04;102417.16;;;10.30;100.00
62791;BME280;48830;53.426;10.300;2023-05-25T02:28:32;102422.16;;;10.27;100.00
62791;BME280;48830;53.426;10.300;2023-05-25T02:30:57;102420.34;;;10.24;100.00
62791;BME280;48830;53.426;10.300;2023-05-25T02:33:23;102414.50;;;10.09;100.00
62791;BME280;48830;53.426;10.300;2023-05-25T02:35:49;102417.53;;;10.00;100.00
62791;BME280;48830;53.426;10.300;2023-05-25T02:38:14;102420.06;;;9.98;100.00
62791;BME280;48830;53.426;10.300;2023-05-25T02:40:40;102419.63;;;9.89;100.00
62791;BME280;48830;53.426;10.300;2023-05-25T02:43:05;102418.25;;;9.96;100.00
62791;BME280;48830;53.426;10.300;2023-05-25T02:45:31;102422.03;;;9.85;100.00
62791;BME280;48830;53.426;10.300;2023-05-25T02:47:57;102416.88;;;9.85;100.00
62791;BME280;48830;53.426;10.300;2023-05-25T02:50:23;102417.88;;;9.88;100.00
62791;BME280;48830;53.426;10.300;2023-05-25T02:52:52;102419.94;;;9.95;100.00
62791;BME280;48830;53.426;10.300;2023-05-25T02:55:17;102423.28;;;9.94;100.00
62791;BME280;48830;53.426;10.300;2023-05-25T02:57:43;102420.81;;;9.96;100.00
62791;BME280;48830;53.426;10.300;2023-05-25T03:00:13;102419.19;;;9.98;100.00
62791;BME280;48830;53.426;10.300;2023-05-25T03:02:39;102420.81;;;9.96;100.00
62791;BME280;48830;53.426;10.300;2023-05-25T03:05:04;102423.44;;;9.97;100.00
62791;BME280;48830;53.426;10.300;2023-05-25T03:07:32;102425.19;;;9.98;100.00
62791;BME280;48830;53.426;10.300;2023-05-25T03:09:57;102423.63;;;10.02;100.00
62791;BME280;48830;53.426;10.300;2023-05-25T03:12:23;102429.44;;;9.98;100.00
62791;BME280;48830;53.426;10.300;2023-05-25T03:14:49;102435.34;;;9.95;100.00
62791;BME280;48830;53.426;10.300;2023-05-25T03:17:15;102435.34;;;9.95;100.00
62791;BME280;48830;53.426;10.300;2023-05-25T03:19:41;102438.03;;;9.98;100.00
62791;BME280;48830;53.426;10.300;2023-05-25T03:22:09;102441.63;;;10.02;100.00
62791;BME280;48830;53.426;10.300;2023-05-25T03:24:35;102440.00;;;10.04;100.00
62791;BME280;48830;53.426;10.300;2023-05-25T03:27:02;102443.50;;;10.06;100.00
62791;BME280;48830;53.426;10.300;2023-05-25T03:29:27;102448.06;;;10.12;100.00
62791;BME280;48830;53.426;10.300;2023-05-25T03:31:53;102450.78;;;10.16;100.00
62791;BME280;48830;53.426;10.300;2023-05-25T03:34:22;102445.81;;;10.19;100.00
62791;BME280;48830;53.426;10.300;2023-05-25T03:36:49;102442.59;;;10.23;100.00
62791;BME280;48830;53.426;10.300;2023-05-25T03:39:16;102447.84;;;10.27;100.00
62791;BME280;48830;53.426;10.300;2023-05-25T03:41:41;102449.75;;;10.31;100.00
62791;BME280;48830;53.426;10.300;2023-05-25T03:44:08;102451.59;;;10.33;100.00
62791;BME280;48830;53.426;10.300;2023-05-25T03:46:35;102456.78;;;10.35;100.00
62791;BME280;48830;53.426;10.300;2023-05-25T03:49:00;102461.16;;;10.37;100.00
62791;BME280;48830;53.426;10.300;2023-05-25T03:51:26;102460.28;;;10.37;100.00
62791;BME280;48830;53.426;10.300;2023-05-25T03:53:53;102460.44;;;10.40;100.00
62791;BME280;48830;53.426;10.300;2023-05-25T03:56:19;102458.94;;;10.45;100.00
62791;BME280;48830;53.426;10.300;2023-05-25T03:58:44;102457.25;;;10.45;100.00
62791;BME280;48830;53.426;10.300;2023-05-25T04:01:10;102459.19;;;10.51;100.00
62791;BME280;48830;53.426;10.300;2023-05-25T04:03:37;102457.56;;;10.53;100.00
62791;BME280;48830;53.426;10.300;2023-05-25T04:06:03;102462.00;;;10.57;100.00
62791;BME280;48830;53.426;10.300;2023-05-25T04:08:28;102467.47;;;10.65;100.00
62791;BME280;48830;53.426;10.300;2023-05-25T04:10:54;102464.97;;;10.66;100.00
62791;BME280;48830;53.426;10.300;2023-05-25T04:13:20;102465.22;;;10.72;100.00
62791;BME280;48830;53.426;10.300;2023-05-25T04:15:46;102472.28;;;10.76;100.00
62791;BME280;48830;53.426;10.300;2023-05-25T04:18:15;102465.63;;;10.82;100.00
62791;BME280;48830;53.426;10.300;2023-05-25T04:20:41;102473.44;;;10.85;100.00
62791;BME280;48830;53.426;10.300;2023-05-25T04:23:09;102471.81;;;10.87;100.00
62791;BME280;48830;53.426;10.300;2023-05-25T04:25:36;102472.72;;;10.87;100.00
62791;BME280;48830;53.426;10.300;2023-05-25T04:28:03;102478.66;;;10.86;100.00
62791;BME280;48830;53.426;10.300;2023-05-25T04:30:45;102477.03;;;10.88;100.00
62791;BME280;48830;53.426;10.300;2023-05-25T04:33:32;102489.28;;;10.94;100.00
62791;BME280;48830;53.426;10.300;2023-05-25T04:36:08;102484.66;;;10.87;100.00
62791;BME280;48830;53.426;10.300;2023-05-25T04:38:35;102487.06;;;10.82;100.00
62791;BME280;48830;53.426;10.300;2023-05-25T04:41:00;102489.69;;;10.84;100.00
62791;BME280;48830;53.426;10.300;2023-05-25T04:43:27;102488.69;;;10.80;100.00
62791;BME280;48830;53.426;10.300;2023-05-25T04:45:55;102491.06;;;10.75;100.00
62791;BME280;48830;53.426;10.300;2023-05-25T04:48:21;102495.88;;;10.87;100.00
62791;BME280;48830;53.426;10.300;2023-05-25T04:50:47;102507.75;;;10.85;100.00
62791;BME280;48830;53.426;10.300;2023-05-25T04:53:12;102508.88;;;10.92;100.00
62791;BME280;48830;53.426;10.300;2023-05-25T04:55:37;102507.34;;;10.95;100.00
62791;BME280;48830;53.426;10.300;2023-05-25T04:58:04;102511.81;;;10.99;100.00
62791;BME280;48830;53.426;10.300;2023-05-25T05:00:30;102516.75;;;10.95;100.00
62791;BME280;48830;53.426;10.300;2023-05-25T05:02:56;102509.91;;;10.95;100.00
62791;BME280;48830;53.426;10.300;2023-05-25T05:05:23;102524.31;;;10.92;100.00
62791;BME280;48830;53.426;10.300;2023-05-25T05:07:49;102517.69;;;10.97;100.00
62791;BME280;48830;53.426;10.300;2023-05-25T05:10:16;102522.09;;;10.99;100.00
62791;BME280;48830;53.426;10.300;2023-05-25T05:12:46;102528.16;;;11.01;100.00
62791;BME280;48830;53.426;10.300;2023-05-25T05:15:11;102522.47;;;11.09;100.00
62791;BME280;48830;53.426;10.300;2023-05-25T05:17:39;102530.50;;;11.16;100.00
62791;BME280;48830;53.426;10.300;2023-05-25T05:20:07;102523.72;;;11.18;100.00
62791;BME280;48830;53.426;10.300;2023-05-25T05:22:33;102517.94;;;11.24;100.00
62791;BME280;48830;53.426;10.300;2023-05-25T05:24:59;102517.19;;;11.26;100.00
62791;BME280;48830;53.426;10.300;2023-05-25T05:27:25;102522.81;;;11.39;100.00
62791;BME280;48830;53.426;10.300;2023-05-25T05:29:59;102526.25;;;11.39;100.00
62791;BME280;48830;53.426;10.300;2023-05-25T05:32:25;102529.16;;;11.47;100.00
62791;BME280;48830;53.426;10.300;2023-05-25T05:34:50;102533.34;;;11.45;100.00
62791;BME280;48830;53.426;10.300;2023-05-25T05:37:32;102529.63;;;11.59;100.00
62791;BME280;48830;53.426;10.300;2023-05-25T05:39:58;102531.84;;;11.72;100.00
62791;BME280;48830;53.426;10.300;2023-05-25T05:42:24;102535.56;;;11.79;100.00
62791;BME280;48830;53.426;10.300;2023-05-25T05:44:50;102535.06;;;11.88;100.00
62791;BME280;48830;53.426;10.300;2023-05-25T05:47:15;102533.22;;;12.07;100.00
62791;BME280;48830;53.426;10.300;2023-05-25T05:49:40;102530.41;;;12.24;100.00
62791;BME280;48830;53.426;10.300;2023-05-25T05:52:08;102540.47;;;12.42;100.00
62791;BME280;48830;53.426;10.300;2023-05-25T05:54:34;102529.28;;;12.41;100.00
62791;BME280;48830;53.426;10.300;2023-05-25T05:57:05;102533.78;;;12.47;100.00
62791;BME280;48830;53.426;10.300;2023-05-25T05:59:31;102537.31;;;12.49;100.00
62791;BME280;48830;53.426;10.300;2023-05-25T06:01:56;102539.06;;;12.50;100.00
62791;BME280;48830;53.426;10.300;2023-05-25T06:04:22;102533.09;;;12.51;100.00
62791;BME280;48830;53.426;10.300;2023-05-25T06:06:50;102542.56;;;12.52;100.00
62791;BME280;48830;53.426;10.300;2023-05-25T06:09:15;102545.16;;;12.52;100.00
62791;BME280;48830;53.426;10.300;2023-05-25T06:11:41;102553.75;;;12.52;100.00
62791;BME280;48830;53.426;10.300;2023-05-25T06:14:07;102553.94;;;12.57;100.00
62791;BME280;48830;53.426;10.300;2023-05-25T06:16:33;102552.34;;;12.60;100.00
62791;BME280;48830;53.426;10.300;2023-05-25T06:18:59;102558.47;;;12.64;100.00
62791;BME280;48830;53.426;10.300;2023-05-25T06:21:25;102564.63;;;12.68;100.00
62791;BME280;48830;53.426;10.300;2023-05-25T06:23:51;102568.59;;;12.82;100.00
62791;BME280;48830;53.426;10.300;2023-05-25T06:26:17;102568.94;;;12.93;100.00
62791;BME280;48830;53.426;10.300;2023-05-25T06:28:42;102566.16;;;12.86;100.00
62791;BME280;48830;53.426;10.300;2023-05-25T06:31:08;102572.06;;;12.84;100.00
62791;BME280;48830;53.426;10.300;2023-05-25T06:33:33;102574.41;;;13.02;100.00
62791;BME280;48830;53.426;10.300;2023-05-25T06:35:59;102574.34;;;13.00;100.00
62791;BME280;48830;53.426;10.300;2023-05-25T06:38:28;102572.69;;;13.53;100.00
62791;BME280;48830;53.426;10.300;2023-05-25T06:40:53;102569.28;;;13.83;100.00
62791;BME280;48830;53.426;10.300;2023-05-25T06:43:19;102570.34;;;14.18;100.00
62791;BME280;48830;53.426;10.300;2023-05-25T06:45:59;102564.41;;;14.51;100.00
62791;BME280;48830;53.426;10.300;2023-05-25T06:48:25;102566.16;;;14.83;100.00
62791;BME280;48830;53.426;10.300;2023-05-25T06:50:51;102562.13;;;14.94;100.00
62791;BME280;48830;53.426;10.300;2023-05-25T06:53:16;102568.31;;;15.01;99.16
62791;BME280;48830;53.426;10.300;2023-05-25T06:55:42;102555.03;;;15.22;97.81
62791;BME280;48830;53.426;10.300;2023-05-25T06:58:07;102563.25;;;15.06;97.45
62791;BME280;48830;53.426;10.300;2023-05-25T07:00:33;102565.56;;;14.93;96.59
62791;BME280;48830;53.426;10.300;2023-05-25T07:02:58;102568.84;;;14.86;95.20
62791;BME280;48830;53.426;10.300;2023-05-25T07:05:24;102575.88;;;14.92;94.67
62791;BME280;48830;53.426;10.300;2023-05-25T07:07:49;102571.31;;;14.83;95.98
62791;BME280;48830;53.426;10.300;2023-05-25T07:10:16;102579.69;;;14.73;95.26
62791;BME280;48830;53.426;10.300;2023-05-25T07:12:41;102573.16;;;14.87;95.90
62791;BME280;48830;53.426;10.300;2023-05-25T07:15:07;102566.56;;;15.00;94.83
62791;BME280;48830;53.426;10.300;2023-05-25T07:17:33;102572.47;;;14.94;92.25
62791;BME280;48830;53.426;10.300;2023-05-25T07:20:01;102570.84;;;15.33;92.59
62791;BME280;48830;53.426;10.300;2023-05-25T07:22:26;102582.13;;;15.71;90.54
62791;BME280;48830;53.426;10.300;2023-05-25T07:24:51;102586.66;;;16.19;89.01
62791;BME280;48830;53.426;10.300;2023-05-25T07:27:17;102578.59;;;16.47;84.54
62791;BME280;48830;53.426;10.300;2023-05-25T07:29:43;102572.94;;;16.68;82.62
62791;BME280;48830;53.426;10.300;2023-05-25T07:32:09;102577.22;;;17.13;82.52
62791;BME280;48830;53.426;10.300;2023-05-25T07:34:35;102581.91;;;17.34;80.57
62791;BME280;48830;53.426;10.300;2023-05-25T07:37:00;102570.81;;;17.44;78.92
62791;BME280;48830;53.426;10.300;2023-05-25T07:39:26;102582.81;;;17.36;78.87
62791;BME280;48830;53.426;10.300;2023-05-25T07:41:51;102581.41;;;17.05;79.53
62791;BME280;48830;53.426;10.300;2023-05-25T07:44:17;102581.88;;;16.81;78.94
62791;BME280;48830;53.426;10.300;2023-05-25T07:46:42;102585.34;;;16.83;80.01
62791;BME280;48830;53.426;10.300;2023-05-25T07:49:08;102583.97;;;17.55;79.33
62791;BME280;48830;53.426;10.300;2023-05-25T07:51:41;102579.22;;;17.86;76.50
62791;BME280;48830;53.426;10.300;2023-05-25T07:54:07;102586.81;;;17.72;74.97
62791;BME280;48830;53.426;10.300;2023-05-25T07:56:32;102591.78;;;17.56;76.10
62791;BME280;48830;53.426;10.300;2023-05-25T07:58:58;102585.50;;;17.98;76.38
62791;BME280;48830;53.426;10.300;2023-05-25T08:01:25;102582.44;;;18.31;71.88
62791;BME280;48830;53.426;10.300;2023-05-25T08:03:50;102595.66;;;18.50;75.14
62791;BME280;48830;53.426;10.300;2023-05-25T08:06:16;102594.91;;;18.57;74.93
62791;BME280;48830;53.426;10.300;2023-05-25T08:08:41;102601.47;;;18.26;75.22
62791;BME280;48830;53.426;10.300;2023-05-25T08:11:10;102592.72;;;18.21;74.13
62791;BME280;48830;53.426;10.300;2023-05-25T08:13:36;102596.59;;;18.56;76.49
62791;BME280;48830;53.426;10.300;2023-05-25T08:16:01;102594.97;;;18.65;71.47
62791;BME280;48830;53.426;10.300;2023-05-25T08:18:26;102593.50;;;18.86;69.85
62791;BME280;48830;53.426;10.300;2023-05-25T08:20:52;102589.34;;;19.10;69.34
62791;BME280;48830;53.426;10.300;2023-05-25T08:23:17;102592.97;;;19.26;69.52
62791;BME280;48830;53.426;10.300;2023-05-25T08:25:43;102603.84;;;18.82;68.13
62791;BME280;48830;53.426;10.300;2023-05-25T08:28:08;102606.00;;;19.23;68.09
62791;BME280;48830;53.426;10.300;2023-05-25T08:30:34;102609.22;;;18.97;68.03
62791;BME280;48830;53.426;10.300;2023-05-25T08:32:59;102609.38;;;19.12;67.94
62791;BME280;48830;53.426;10.300;2023-05-25T08:35:24;102609.69;;;19.49;66.17
62791;BME280;48830;53.426;10.300;2023-05-25T08:37:50;102597.44;;;19.42;67.23
62791;BME280;48830;53.426;10.300;2023-05-25T08:40:17;102601.47;;;19.02;65.68
62791;BME280;48830;53.426;10.300;2023-05-25T08:42:45;102600.22;;;19.59;67.12
62791;BME280;48830;53.426;10.300;2023-05-25T08:45:11;102602.09;;;19.83;64.00
62791;BME280;48830;53.426;10.300;2023-05-25T08:47:41;102597.84;;;20.00;62.94
62791;BME280;48830;53.426;10.300;2023-05-25T08:50:08;102611.81;;;20.10;61.35
62791;BME280;48830;53.426;10.300;2023-05-25T08:52:37;102609.41;;;20.47;61.28
62791;BME280;48830;53.426;10.300;2023-05-25T08:55:06;102612.09;;;20.80;61.29
62791;BME280;48830;53.426;10.300;2023-05-25T08:57:50;102612.13;;;21.12;59.62
62791;BME280;48830;53.426;10.300;2023-05-25T09:00:21;102612.91;;;20.59;60.28
62791;BME280;48830;53.426;10.300;2023-05-25T09:02:51;102625.69;;;20.01;60.22
62791;BME280;48830;53.426;10.300;2023-05-25T09:05:19;102621.66;;;20.69;59.31
62791;BME280;48830;53.426;10.300;2023-05-25T09:07:45;102624.34;;;21.07;57.30
62791;BME280;48830;53.426;10.300;2023-05-25T09:10:11;102611.28;;;21.36;57.94
62791;BME280;48830;53.426;10.300;2023-05-25T09:12:39;102620.88;;;21.66;58.35
62791;BME280;48830;53.426;10.300;2023-05-25T09:15:06;102615.56;;;21.97;59.10
62791;BME280;48830;53.426;10.300;2023-05-25T09:17:31;102633.81;;;22.26;57.05
62791;BME280;48830;53.426;10.300;2023-05-25T09:19:58;102616.34;;;22.30;56.01
62791;BME280;48830;53.426;10.300;2023-05-25T09:22:23;102615.53;;;22.06;55.06
62791;BME280;48830;53.426;10.300;2023-05-25T09:24:49;102610.34;;;21.97;55.03
62791;BME280;48830;53.426;10.300;2023-05-25T09:27:19;102606.81;;;21.95;56.27
62791;BME280;48830;53.426;10.300;2023-05-25T09:29:47;102625.22;;;21.15;57.24
62791;BME280;48830;53.426;10.300;2023-05-25T09:32:14;102616.53;;;21.41;57.38
62791;BME280;48830;53.426;10.300;2023-05-25T09:34:42;102620.00;;;21.55;56.58
62791;BME280;48830;53.426;10.300;2023-05-25T09:37:12;102626.06;;;21.86;56.36
62791;BME280;48830;53.426;10.300;2023-05-25T09:39:42;102622.56;;;21.92;55.75
62791;BME280;48830;53.426;10.300;2023-05-25T09:42:08;102630.44;;;21.81;54.61
62791;BME280;48830;53.426;10.300;2023-05-25T09:44:34;102618.16;;;22.03;55.88
62791;BME280;48830;53.426;10.300;2023-05-25T09:47:00;102629.59;;;21.65;54.54
62791;BME280;48830;53.426;10.300;2023-05-25T09:49:26;102624.25;;;22.05;57.49
62791;BME280;48830;53.426;10.300;2023-05-25T09:51:52;102638.28;;;21.73;54.94
62791;BME280;48830;53.426;10.300;2023-05-25T09:54:17;102630.41;;;22.13;54.43
62791;BME280;48830;53.426;10.300;2023-05-25T09:56:43;102642.50;;;22.40;52.99
62791;BME280;48830;53.426;10.300;2023-05-25T09:59:10;102627.59;;;22.53;52.49
62791;BME280;48830;53.426;10.300;2023-05-25T10:01:36;102632.00;;;22.42;52.89
62791;BME280;48830;53.426;10.300;2023-05-25T10:04:01;102628.53;;;22.40;52.75
62791;BME280;48830;53.426;10.300;2023-05-25T10:06:27;102637.06;;;22.80;50.96
62791;BME280;48830;53.426;10.300;2023-05-25T10:08:55;102631.69;;;23.01;51.88
62791;BME280;48830;53.426;10.300;2023-05-25T10:11:23;102631.53;;;23.23;52.45
62791;BME280;48830;53.426;10.300;2023-05-25T10:13:49;102630.59;;;23.30;48.92
62791;BME280;48830;53.426;10.300;2023-05-25T10:16:16;102630.13;;;22.65;48.70
62791;BME280;48830;53.426;10.300;2023-05-25T10:19:03;102636.25;;;22.67;49.90
62791;BME280;48830;53.426;10.300;2023-05-25T10:21:30;102636.34;;;22.52;50.65
62791;BME280;48830;53.426;10.300;2023-05-25T10:24:13;102642.09;;;23.17;50.04
62791;BME280;48830;53.426;10.300;2023-05-25T10:26:47;102638.50;;;23.27;50.81
62791;BME280;48830;53.426;10.300;2023-05-25T10:29:15;102642.84;;;23.33;51.02
62791;BME280;48830;53.426;10.300;2023-05-25T10:31:41;102644.44;;;23.49;49.02
62791;BME280;48830;53.426;10.300;2023-05-25T10:34:07;102639.91;;;23.69;49.07
62791;BME280;48830;53.426;10.300;2023-05-25T10:36:33;102642.94;;;23.20;49.33
62791;BME280;48830;53.426;10.300;2023-05-25T10:39:00;102637.53;;;23.42;49.62
62791;BME280;48830;53.426;10.300;2023-05-25T10:41:26;102633.94;;;23.52;51.20
62791;BME280;48830;53.426;10.300;2023-05-25T10:43:52;102637.59;;;23.31;48.19
62791;BME280;48830;53.426;10.300;2023-05-25T10:46:17;102647.41;;;23.09;48.95
62791;BME280;48830;53.426;10.300;2023-05-25T10:48:47;102635.47;;;23.73;51.07
62791;BME280;48830;53.426;10.300;2023-05-25T10:51:13;102639.06;;;23.61;49.12
62791;BME280;48830;53.426;10.300;2023-05-25T10:53:45;102628.66;;;23.50;48.90
62791;BME280;48830;53.426;10.300;2023-05-25T10:56:11;102628.81;;;23.34;48.40
62791;BME280;48830;53.426;10.300;2023-05-25T10:58:41;102629.34;;;23.75;48.93
62791;BME280;48830;53.426;10.300;2023-05-25T11:01:10;102627.75;;;23.56;47.93
62791;BME280;48830;53.426;10.300;2023-05-25T11:06:11;102623.19;;;23.76;48.24
62791;BME280;48830;53.426;10.300;2023-05-25T11:08:57;102617.63;;;24.07;47.79
62791;BME280;48830;53.426;10.300;2023-05-25T11:19:46;102613.53;;;23.80;46.17
62791;BME280;48830;53.426;10.300;2023-05-25T11:24:52;102608.75;;;24.14;47.49
62791;BME280;48830;53.426;10.300;2023-05-25T11:27:26;102607.50;;;23.70;49.02
62791;BME280;48830;53.426;10.300;2023-05-25T11:29:53;102605.56;;;23.91;47.93
62791;BME280;48830;53.426;10.300;2023-05-25T11:32:20;102608.59;;;24.26;49.59
62791;BME280;48830;53.426;10.300;2023-05-25T11:34:47;102606.63;;;24.47;46.56
62791;BME280;48830;53.426;10.300;2023-05-25T11:37:16;102601.53;;;24.31;48.16
62791;BME280;48830;53.426;10.300;2023-05-25T11:39:46;102602.63;;;24.14;49.09
62791;BME280;48830;53.426;10.300;2023-05-25T11:42:13;102611.50;;;24.05;47.59
62791;BME280;48830;53.426;10.300;2023-05-25T11:44:39;102602.88;;;23.95;46.70
62791;BME280;48830;53.426;10.300;2023-05-25T11:47:09;102604.53;;;24.02;47.30
62791;BME280;48830;53.426;10.300;2023-05-25T11:49:42;102613.91;;;24.23;48.88
62791;BME280;48830;53.426;10.300;2023-05-25T11:52:15;102610.56;;;24.09;48.20
62791;BME280;48830;53.426;10.300;2023-05-25T11:54:41;102604.81;;;23.76;48.73
62791;BME280;48830;53.426;10.300;2023-05-25T11:57:36;102597.75;;;23.85;47.39
62791;BME280;48830;53.426;10.300;2023-05-25T12:00:02;102601.31;;;23.77;47.88
62791;BME280;48830;53.426;10.300;2023-05-25T12:02:39;102600.31;;;23.88;48.83
62791;BME280;48830;53.426;10.300;2023-05-25T12:05:06;102599.34;;;23.96;47.88
62791;BME280;48830;53.426;10.300;2023-05-25T12:07:33;102602.75;;;24.04;47.79
62791;BME280;48830;53.426;10.300;2023-05-25T12:10:09;102592.13;;;24.78;49.61
62791;BME280;48830;53.426;10.300;2023-05-25T12:15:13;102597.00;;;25.57;45.62
62791;BME280;48830;53.426;10.300;2023-05-25T12:17:40;102603.38;;;25.44;46.23
62791;BME280;48830;53.426;10.300;2023-05-25T12:20:07;102590.84;;;25.05;45.04
62791;BME280;48830;53.426;10.300;2023-05-25T12:22:34;102592.63;;;24.45;46.36
62791;BME280;48830;53.426;10.300;2023-05-25T12:24:59;102592.88;;;24.23;46.24
62791;BME280;48830;53.426;10.300;2023-05-25T12:27:25;102593.28;;;24.59;47.13
62791;BME280;48830;53.426;10.300;2023-05-25T12:29:50;102593.13;;;24.71;47.06
62791;BME280;48830;53.426;10.300;2023-05-25T12:32:17;102600.97;;;24.74;48.20
62791;BME280;48830;53.426;10.300;2023-05-25T12:34:43;102597.94;;;25.00;47.57
62791;BME280;48830;53.426;10.300;2023-05-25T12:37:19;102595.25;;;25.03;46.18
62791;BME280;48830;53.426;10.300;2023-05-25T12:39:47;102593.63;;;24.95;47.23
62791;BME280;48830;53.426;10.300;2023-05-25T12:42:14;102584.34;;;24.72;46.06
62791;BME280;48830;53.426;10.300;2023-05-25T12:44:41;102586.88;;;24.14;48.74
62791;BME280;48830;53.426;10.300;2023-05-25T12:47:17;102593.53;;;25.01;48.46
62791;BME280;48830;53.426;10.300;2023-05-25T12:49:52;102589.97;;;25.08;48.11
62791;BME280;48830;53.426;10.300;2023-05-25T12:55:25;102588.88;;;25.20;47.02
62791;BME280;48830;53.426;10.300;2023-05-25T12:58:01;102580.94;;;25.21;46.43